createdAt,value
2023-05-10T00:02:32.436Z,79.44
2023-05-10T00:05:17.972Z,79.03
2023-05-10T00:08:03.364Z,79.47
2023-05-10T00:10:48.576Z,79.20
2023-05-10T00:13:34.385Z,79.05
2023-05-10T00:16:19.349Z,79.18
2023-05-10T00:19:04.724Z,79.94
2023-05-10T00:21:50.171Z,79.32
2023-05-10T00:24:39.780Z,79.40
2023-05-10T00:27:25.386Z,79.70
2023-05-10T00:30:11.047Z,79.93
2023-05-10T00:32:56.131Z,79.50
2023-05-10T00:35:41.456Z,79.36
2023-05-10T00:38:26.771Z,79.44
2023-05-10T00:41:11.986Z,79.30
2023-05-10T00:43:57.214Z,79.16
2023-05-10T00:46:42.893Z,79.57
2023-05-10T00:49:28.640Z,79.80
2023-05-10T00:52:14.078Z,79.96
2023-05-10T00:54:59.427Z,80.67
2023-05-10T00:57:45.571Z,80.36
2023-05-10T01:00:31.161Z,80.35
2023-05-10T01:03:16.402Z,80.34
2023-05-10T01:06:01.421Z,80.24
2023-05-10T01:08:46.889Z,80.83
2023-05-10T01:11:31.922Z,80.62
2023-05-10T01:14:20.852Z,80.84
2023-05-10T01:17:07.256Z,80.58
2023-05-10T01:19:52.690Z,80.10
2023-05-10T01:22:44.899Z,80.09
2023-05-10T01:25:56.859Z,80.60
2023-05-10T01:29:00.844Z,80.35
2023-05-10T01:32:04.179Z,81.02
2023-05-10T01:35:15.902Z,81.02
2023-05-10T01:38:10.680Z,80.87
2023-05-10T01:41:13.325Z,80.62
2023-05-10T01:44:14.448Z,81.03
2023-05-10T01:47:23.545Z,80.76
2023-05-10T01:50:16.868Z,80.88
2023-05-10T01:53:05.905Z,80.81
2023-05-10T01:55:54.785Z,81.15
2023-05-10T01:58:45.297Z,81.56
2023-05-10T02:01:30.924Z,81.45
2023-05-10T02:04:18.510Z,81.99
2023-05-10T02:07:04.810Z,81.87
2023-05-10T02:09:51.595Z,81.42
2023-05-10T02:12:40.374Z,81.51
2023-05-10T02:15:27.509Z,82.02
2023-05-10T02:18:14.680Z,81.87
2023-05-10T02:21:01.215Z,81.85
2023-05-10T02:23:47.574Z,81.55
2023-05-10T02:26:35.336Z,81.65
2023-05-10T02:29:21.365Z,81.86
2023-05-10T02:32:07.358Z,81.97
2023-05-10T02:34:54.038Z,81.84
2023-05-10T02:37:40.840Z,82.64
2023-05-10T02:40:28.953Z,82.12
2023-05-10T02:43:18.136Z,81.85
2023-05-10T02:46:03.633Z,81.46
2023-05-10T02:48:48.741Z,82.22
2023-05-10T02:51:37.531Z,82.40
2023-05-10T02:54:30.835Z,81.86
2023-05-10T02:57:19.539Z,82.34
2023-05-10T03:00:05.946Z,82.38
2023-05-10T03:02:51.436Z,82.71
2023-05-10T03:05:36.756Z,82.29
2023-05-10T03:08:22.780Z,82.20
2023-05-10T03:11:35.451Z,82.75
2023-05-10T03:14:50.098Z,82.61
2023-05-10T03:17:56.321Z,82.76
2023-05-10T03:20:49.413Z,82.46
2023-05-10T03:24:03.752Z,82.95
2023-05-10T03:26:51.290Z,82.76
2023-05-10T03:29:38.331Z,82.75
2023-05-10T03:32:24.229Z,82.73
2023-05-10T03:35:14.319Z,82.85
2023-05-10T03:37:59.788Z,83.04
2023-05-10T03:40:45.186Z,82.72
2023-05-10T03:43:30.472Z,83.44
2023-05-10T03:46:15.891Z,83.58
2023-05-10T03:49:01.077Z,84.04
2023-05-10T03:51:46.392Z,83.58
2023-05-10T03:54:31.681Z,83.34
2023-05-10T03:57:17.058Z,84.23
2023-05-10T04:00:03.749Z,84.37
2023-05-10T04:02:49.260Z,85.15
2023-05-10T04:05:34.439Z,84.55
2023-05-10T04:08:19.809Z,84.58
2023-05-10T04:11:13.666Z,84.77
2023-05-10T04:13:58.609Z,85.20
2023-05-10T04:16:43.986Z,84.37
2023-05-10T04:19:32.805Z,84.79
2023-05-10T04:22:18.630Z,85.16
2023-05-10T04:25:04.050Z,86.09
2023-05-10T04:27:49.071Z,85.79
2023-05-10T04:30:34.515Z,86.07
2023-05-10T04:33:19.704Z,85.87
2023-05-10T04:36:23.924Z,85.99
2023-05-10T04:39:10.743Z,86.28
2023-05-10T04:41:55.955Z,86.37
2023-05-10T04:44:41.784Z,86.76
2023-05-10T04:47:27.045Z,86.26
2023-05-10T04:50:12.463Z,86.64
2023-05-10T04:52:57.629Z,87.21
2023-05-10T04:55:43.253Z,86.96
2023-05-10T04:58:28.354Z,88.14
2023-05-10T05:01:13.821Z,88.65
2023-05-10T05:03:59.417Z,88.71
2023-05-10T05:06:45.039Z,88.38
2023-05-10T05:09:30.266Z,88.01
2023-05-10T05:12:15.816Z,89.06
2023-05-10T05:15:01.268Z,88.91
2023-05-10T05:17:46.763Z,88.91
2023-05-10T05:20:34.412Z,88.49
2023-05-10T05:23:21.663Z,88.82
2023-05-10T05:26:06.746Z,89.43
2023-05-10T05:28:54.888Z,88.49
2023-05-10T05:31:40.595Z,88.29
2023-05-10T05:34:26.240Z,88.38
2023-05-10T05:37:17.809Z,88.63
2023-05-10T05:40:03.966Z,88.87
2023-05-10T05:42:49.025Z,89.15
2023-05-10T05:45:34.138Z,87.68
2023-05-10T05:48:19.551Z,86.07
2023-05-10T05:51:06.597Z,84.50
2023-05-10T05:53:52.747Z,83.80
2023-05-10T05:56:38.977Z,82.95
2023-05-10T05:59:24.881Z,80.68
2023-05-10T06:02:11.319Z,79.83
2023-05-10T06:04:56.941Z,79.07
2023-05-10T06:07:45.455Z,80.19
2023-05-10T06:10:31.578Z,78.02
2023-05-10T06:13:17.007Z,76.23
2023-05-10T06:16:04.156Z,74.87
2023-05-10T06:18:50.149Z,73.92
2023-05-10T06:21:35.222Z,72.46
2023-05-10T06:24:22.802Z,72.42
2023-05-10T06:27:08.012Z,71.48
2023-05-10T06:30:02.051Z,71.04
2023-05-10T06:32:50.777Z,70.52
2023-05-10T06:35:36.188Z,69.99
2023-05-10T06:38:21.525Z,68.59
2023-05-10T06:41:06.821Z,69.51
2023-05-10T06:43:52.507Z,68.96
2023-05-10T06:46:37.928Z,68.86
2023-05-10T06:49:23.390Z,68.73
2023-05-10T06:52:08.749Z,68.15
2023-05-10T06:54:54.049Z,68.32
2023-05-10T06:57:39.392Z,68.46
2023-05-10T07:00:25.062Z,68.15
2023-05-10T07:03:11.780Z,66.73
2023-05-10T07:06:04.812Z,66.27
2023-05-10T07:08:50.316Z,65.58
2023-05-10T07:11:36.212Z,65.65
2023-05-10T07:14:21.656Z,65.92
2023-05-10T07:17:06.924Z,66.50
2023-05-10T07:19:52.346Z,65.75
2023-05-10T07:22:37.737Z,65.25
2023-05-10T07:25:23.050Z,64.99
2023-05-10T07:28:08.324Z,64.64
2023-05-10T07:30:53.663Z,64.37
2023-05-10T07:33:39.087Z,65.39
2023-05-10T07:36:24.483Z,63.75
2023-05-10T07:39:09.964Z,64.81
2023-05-10T07:41:56.844Z,64.07
2023-05-10T07:44:42.831Z,63.56
2023-05-10T07:47:27.998Z,62.66
2023-05-10T07:50:13.374Z,62.53
2023-05-10T07:52:58.890Z,62.15
2023-05-10T07:55:44.177Z,63.01
2023-05-10T07:58:29.366Z,62.09
2023-05-10T08:01:14.472Z,62.53
2023-05-10T08:03:59.946Z,62.46
2023-05-10T08:06:45.095Z,62.38
2023-05-10T08:09:30.542Z,60.52
2023-05-10T08:12:15.817Z,60.22
2023-05-10T08:15:01.167Z,59.59
2023-05-10T08:17:46.687Z,59.40
2023-05-10T08:20:32.325Z,59.81
2023-05-10T08:23:17.484Z,60.43
2023-05-10T08:26:02.912Z,60.66
2023-05-10T08:28:48.411Z,60.52
2023-05-10T08:31:33.762Z,59.05
2023-05-10T08:34:18.952Z,58.80
2023-05-10T08:37:04.792Z,58.44
2023-05-10T08:39:50.041Z,59.35
2023-05-10T08:42:38.808Z,58.03
2023-05-10T08:45:25.641Z,58.88
2023-05-10T08:48:12.242Z,59.08
2023-05-10T08:51:00.696Z,57.25
2023-05-10T08:53:47.241Z,58.24
2023-05-10T08:56:32.678Z,57.14
2023-05-10T08:59:18.100Z,58.42
2023-05-10T09:02:05.810Z,56.78
2023-05-10T09:04:51.165Z,57.63
2023-05-10T09:07:37.492Z,57.12
2023-05-10T09:10:23.898Z,56.85
2023-05-10T09:13:11.646Z,57.71
2023-05-10T09:16:00.364Z,55.96
2023-05-10T09:18:50.614Z,55.66
2023-05-10T09:21:39.426Z,56.36
2023-05-10T09:24:30.766Z,56.94
2023-05-10T09:27:16.176Z,57.62
2023-05-10T09:30:01.760Z,56.60
2023-05-10T09:32:49.345Z,55.63
2023-05-10T09:35:34.872Z,55.20
2023-05-10T09:38:20.547Z,56.22
2023-05-10T09:41:05.606Z,55.41
2023-05-10T09:43:51.566Z,57.50
2023-05-10T09:46:37.964Z,57.59
2023-05-10T09:49:23.454Z,56.33
2023-05-10T09:52:09.050Z,56.42
2023-05-10T09:54:55.043Z,55.01
2023-05-10T09:57:41.612Z,56.29
2023-05-10T10:00:28.276Z,54.83
2023-05-10T10:03:16.320Z,53.57
2023-05-10T10:06:01.934Z,54.16
2023-05-10T10:08:47.378Z,55.50
2023-05-10T10:11:33.800Z,53.85
2023-05-10T10:14:19.843Z,53.02
2023-05-10T10:17:08.760Z,53.81
2023-05-10T10:19:56.045Z,53.34
2023-05-10T10:22:41.383Z,52.83
2023-05-10T10:25:26.837Z,52.47
2023-05-10T10:28:38.170Z,52.98
2023-05-10T10:31:46.700Z,54.83
2023-05-10T10:34:33.038Z,53.12
2023-05-10T10:37:18.516Z,53.66
2023-05-10T10:40:27.325Z,54.13
2023-05-10T10:43:26.793Z,52.72
2023-05-10T10:46:13.359Z,51.82
2023-05-10T10:49:11.681Z,53.45
2023-05-10T10:52:21.778Z,55.11
2023-05-10T10:55:26.004Z,53.99
2023-05-10T10:58:11.311Z,51.75
2023-05-10T11:01:12.077Z,52.34
2023-05-10T11:04:03.571Z,52.01
2023-05-10T11:06:49.076Z,52.70
2023-05-10T11:09:41.037Z,52.36
2023-05-10T11:12:26.517Z,51.44
2023-05-10T11:15:12.139Z,51.79
2023-05-10T11:17:57.327Z,51.59
2023-05-10T11:20:43.041Z,52.63
2023-05-10T11:23:50.536Z,52.43
2023-05-10T11:26:36.601Z,52.57
2023-05-10T11:29:22.182Z,52.65
2023-05-10T11:32:09.193Z,51.65
2023-05-10T11:34:54.650Z,51.74
2023-05-10T11:37:44.329Z,53.35
2023-05-10T11:40:29.792Z,53.03
2023-05-10T11:43:15.029Z,53.99
2023-05-10T11:46:00.646Z,53.04
2023-05-10T11:48:46.048Z,52.90
2023-05-10T11:51:35.232Z,52.73
2023-05-10T11:54:20.704Z,52.71
2023-05-10T11:57:06.136Z,52.49
2023-05-10T11:59:56.008Z,53.34
2023-05-10T12:02:41.716Z,52.70
2023-05-10T12:05:27.498Z,52.23
2023-05-10T12:08:14.187Z,51.70
2023-05-10T12:11:11.444Z,51.95
2023-05-10T12:13:57.735Z,52.17
2023-05-10T12:16:44.639Z,53.14
2023-05-10T12:19:38.238Z,51.98
2023-05-10T12:22:23.514Z,51.83
2023-05-10T12:25:10.047Z,52.76
2023-05-10T12:31:00.852Z,50.90
2023-05-10T12:33:47.458Z,50.04
2023-05-10T12:36:32.640Z,49.27
2023-05-10T12:39:18.039Z,50.95
2023-05-10T12:42:03.340Z,50.49
2023-05-10T12:44:48.523Z,50.20
2023-05-10T12:47:34.406Z,50.40
2023-05-10T12:50:19.734Z,50.71
2023-05-10T12:53:05.062Z,50.03
2023-05-10T12:55:50.304Z,50.56
2023-05-10T12:58:36.426Z,50.18
2023-05-10T13:01:21.782Z,49.96
2023-05-10T13:04:08.304Z,47.89
2023-05-10T13:06:53.817Z,48.72
2023-05-10T13:09:39.221Z,47.91
2023-05-10T13:12:24.764Z,46.02
2023-05-10T13:15:10.353Z,46.57
2023-05-10T13:17:56.088Z,45.71
2023-05-10T13:20:41.667Z,45.64
2023-05-10T13:23:26.705Z,46.11
2023-05-10T13:26:12.125Z,46.06
2023-05-10T13:28:57.386Z,46.40
2023-05-10T13:31:42.802Z,47.05
2023-05-10T13:34:28.169Z,47.37
2023-05-10T13:37:13.539Z,45.91
2023-05-10T13:39:59.075Z,45.72
2023-05-10T13:42:44.604Z,44.73
2023-05-10T13:45:29.856Z,45.48
2023-05-10T13:48:15.064Z,44.14
2023-05-10T13:51:00.605Z,43.02
2023-05-10T13:53:47.984Z,42.79
2023-05-10T13:56:33.028Z,42.31
2023-05-10T13:59:18.560Z,43.72
2023-05-10T14:02:03.787Z,44.34
2023-05-10T14:04:49.351Z,43.71
2023-05-10T14:07:34.442Z,43.86
2023-05-10T14:10:19.724Z,44.01
2023-05-10T14:13:05.262Z,43.33
2023-05-10T14:15:50.632Z,44.18
2023-05-10T14:18:36.151Z,43.01
2023-05-10T14:21:21.572Z,41.78
2023-05-10T14:24:08.181Z,43.06
2023-05-10T14:26:54.938Z,43.84
2023-05-10T14:29:40.097Z,44.22
2023-05-10T14:32:25.891Z,42.26
2023-05-10T14:35:13.180Z,42.98
2023-05-10T14:37:59.340Z,42.25
2023-05-10T14:40:44.794Z,42.29
2023-05-10T14:43:30.209Z,42.24
2023-05-10T14:46:15.467Z,41.85
2023-05-10T14:49:00.794Z,42.92
2023-05-10T14:51:46.666Z,43.00
2023-05-10T14:54:31.963Z,43.45
2023-05-10T14:57:17.414Z,43.46
2023-05-10T15:00:04.592Z,43.98
2023-05-10T15:02:50.514Z,43.22
2023-05-10T15:05:38.340Z,43.15
2023-05-10T15:08:24.779Z,43.69
2023-05-10T15:11:09.992Z,42.26
2023-05-10T15:13:55.311Z,43.77
2023-05-10T15:16:40.664Z,42.78
2023-05-10T15:19:25.862Z,42.62
2023-05-10T15:22:11.399Z,43.65
2023-05-10T15:24:56.876Z,43.44
2023-05-10T15:27:44.512Z,43.01
2023-05-10T15:30:29.975Z,43.11
2023-05-10T15:33:15.028Z,42.83
2023-05-10T15:36:00.049Z,42.79
2023-05-10T15:38:45.362Z,42.66
2023-05-10T15:41:31.121Z,43.27
2023-05-10T15:44:17.780Z,42.36
2023-05-10T15:47:03.861Z,42.04
2023-05-10T15:49:49.087Z,42.44
2023-05-10T15:52:34.906Z,41.50
2023-05-10T15:55:20.392Z,42.09
2023-05-10T15:58:05.579Z,42.41
2023-05-10T16:00:51.124Z,41.54
2023-05-10T16:03:37.573Z,41.71
2023-05-10T16:06:23.343Z,42.17
2023-05-10T16:09:08.709Z,42.81
2023-05-10T16:11:54.330Z,41.80
2023-05-10T16:14:39.518Z,41.06
2023-05-10T16:17:24.634Z,40.96
2023-05-10T16:20:10.113Z,40.32
2023-05-10T16:22:56.006Z,41.32
2023-05-10T16:25:41.550Z,41.79
2023-05-10T16:28:26.671Z,41.61
2023-05-10T16:31:12.105Z,41.09
2023-05-10T16:33:57.411Z,41.52
2023-05-10T16:36:42.629Z,41.78
2023-05-10T16:39:27.648Z,40.88
2023-05-10T16:42:13.009Z,41.27
2023-05-10T16:44:58.362Z,41.40
2023-05-10T16:47:43.719Z,41.53
2023-05-10T16:50:29.485Z,41.05
2023-05-10T16:53:14.697Z,40.87
2023-05-10T16:55:59.888Z,41.47
2023-05-10T16:58:47.592Z,41.49
2023-05-10T17:01:34.143Z,41.49
2023-05-10T17:04:19.305Z,42.73
2023-05-10T17:07:04.809Z,42.01
2023-05-10T17:09:50.174Z,42.51
2023-05-10T17:12:35.736Z,42.65
2023-05-10T17:15:21.761Z,42.34
2023-05-10T17:18:07.745Z,42.01
2023-05-10T17:20:53.151Z,43.00
2023-05-10T17:23:38.397Z,43.83
2023-05-10T17:26:23.496Z,44.18
2023-05-10T17:29:09.023Z,45.25
2023-05-10T17:31:54.292Z,45.25
2023-05-10T17:34:39.606Z,45.67
2023-05-10T17:37:25.098Z,46.48
2023-05-10T17:40:10.774Z,47.30
2023-05-10T17:42:55.985Z,47.49
2023-05-10T17:45:41.450Z,48.20
2023-05-10T17:48:27.676Z,48.85
2023-05-10T17:51:12.992Z,49.03
2023-05-10T17:53:58.160Z,48.98
2023-05-10T17:56:43.634Z,49.71
2023-05-10T17:59:28.587Z,50.08
2023-05-10T18:02:14.123Z,50.79
2023-05-10T18:05:01.555Z,50.87
2023-05-10T18:07:47.263Z,51.22
2023-05-10T18:10:33.274Z,51.56
2023-05-10T18:13:20.189Z,51.77
2023-05-10T18:16:06.139Z,51.64
2023-05-10T18:18:51.689Z,52.16
2023-05-10T18:21:38.526Z,52.92
2023-05-10T18:24:37.020Z,53.18
2023-05-10T18:27:23.931Z,53.93
2023-05-10T18:30:10.651Z,53.96
2023-05-10T18:32:56.375Z,53.89
2023-05-10T18:35:41.868Z,54.48
2023-05-10T18:38:27.463Z,54.56
2023-05-10T18:41:14.521Z,54.68
2023-05-10T18:43:59.763Z,54.82
2023-05-10T18:46:45.191Z,55.48
2023-05-10T18:49:32.294Z,55.84
2023-05-10T18:52:19.208Z,56.28
2023-05-10T18:55:04.793Z,56.59
2023-05-10T18:57:49.999Z,56.71
2023-05-10T19:00:35.355Z,56.92
2023-05-10T19:03:21.524Z,57.23
2023-05-10T19:06:06.817Z,57.62
2023-05-10T19:08:52.634Z,57.78
2023-05-10T19:11:37.916Z,57.87
2023-05-10T19:14:24.914Z,58.16
2023-05-10T19:17:10.464Z,58.47
2023-05-10T19:19:57.654Z,58.89
2023-05-10T19:22:54.802Z,58.82
2023-05-10T19:25:49.984Z,59.23
2023-05-10T19:28:35.559Z,59.50
2023-05-10T19:31:21.728Z,59.56
2023-05-10T19:34:07.318Z,59.88
2023-05-10T19:36:52.658Z,60.28
2023-05-10T19:39:37.951Z,60.35
2023-05-10T19:42:23.287Z,60.33
2023-05-10T19:45:09.804Z,60.68
2023-05-10T19:47:55.247Z,61.14
2023-05-10T19:50:40.594Z,60.91
2023-05-10T19:53:28.062Z,61.69
2023-05-10T19:56:14.887Z,61.36
2023-05-10T19:59:02.522Z,61.69
2023-05-10T20:01:48.123Z,61.91
2023-05-10T20:04:34.638Z,62.69
2023-05-10T20:07:19.799Z,62.73
2023-05-10T20:10:05.720Z,63.46
2023-05-10T20:12:52.229Z,63.42
2023-05-10T20:15:37.969Z,64.04
2023-05-10T20:18:23.584Z,63.89
2023-05-10T20:21:08.837Z,64.69
2023-05-10T20:23:54.262Z,64.78
2023-05-10T20:26:39.620Z,65.21
2023-05-10T20:29:25.068Z,65.00
2023-05-10T20:32:10.340Z,65.17
2023-05-10T20:34:55.722Z,65.06
2023-05-10T20:37:41.136Z,66.04
2023-05-10T20:40:26.437Z,66.11
2023-05-10T20:43:12.036Z,66.20
2023-05-10T20:45:57.229Z,66.39
2023-05-10T20:48:42.630Z,66.57
2023-05-10T20:51:30.000Z,66.65
2023-05-10T20:54:14.973Z,66.79
2023-05-10T20:57:02.070Z,67.08
2023-05-10T20:59:47.298Z,67.54
2023-05-10T21:02:32.583Z,67.51
2023-05-10T21:05:18.827Z,67.39
2023-05-10T21:08:04.401Z,67.92
2023-05-10T21:10:49.973Z,68.49
2023-05-10T21:13:35.402Z,68.58
2023-05-10T21:16:20.800Z,68.35
2023-05-10T21:19:07.456Z,68.38
2023-05-10T21:21:52.746Z,68.51
2023-05-10T21:24:40.099Z,68.91
2023-05-10T21:27:25.298Z,69.30
2023-05-10T21:30:10.782Z,69.03
2023-05-10T21:32:59.719Z,69.34
2023-05-10T21:35:45.363Z,69.78
2023-05-10T21:38:30.304Z,69.65
2023-05-10T21:41:15.591Z,69.73
2023-05-10T21:44:00.921Z,70.06
2023-05-10T21:46:46.269Z,70.22
2023-05-10T21:49:31.451Z,70.61
2023-05-10T21:52:16.819Z,70.57
2023-05-10T21:55:02.262Z,70.87
2023-05-10T21:57:47.765Z,71.03
2023-05-10T22:00:34.160Z,71.12
2023-05-10T22:03:19.926Z,71.08
2023-05-10T22:06:05.569Z,71.06
2023-05-10T22:08:50.868Z,71.48
2023-05-10T22:11:36.108Z,71.22
2023-05-10T22:14:22.836Z,71.59
2023-05-10T22:17:08.348Z,71.96
2023-05-10T22:19:53.748Z,72.41
2023-05-10T22:22:38.867Z,72.29
2023-05-10T22:25:24.204Z,72.23
2023-05-10T22:28:10.127Z,72.27
2023-05-10T22:30:55.632Z,72.55
2023-05-10T22:33:41.069Z,72.58
2023-05-10T22:36:26.425Z,72.51
2023-05-10T22:39:11.729Z,72.95
2023-05-10T22:41:56.930Z,72.81
2023-05-10T22:44:43.270Z,72.66
2023-05-10T22:47:28.502Z,72.88
2023-05-10T22:50:14.406Z,73.17
2023-05-10T22:52:59.577Z,73.54
2023-05-10T22:55:45.548Z,73.74
2023-05-10T22:58:31.521Z,73.97
2023-05-10T23:01:17.080Z,73.89
2023-05-10T23:04:02.420Z,74.11
2023-05-10T23:06:47.699Z,74.25
2023-05-10T23:09:33.181Z,74.27
2023-05-10T23:12:18.223Z,74.26
2023-05-10T23:15:03.659Z,74.34
2023-05-10T23:17:48.759Z,74.30
2023-05-10T23:20:34.008Z,74.42
2023-05-10T23:23:19.164Z,74.68
2023-05-10T23:26:05.298Z,74.69
2023-05-10T23:28:50.605Z,75.10
2023-05-10T23:31:37.150Z,75.10
2023-05-10T23:34:22.646Z,75.61
2023-05-10T23:37:07.972Z,75.54
2023-05-10T23:39:53.720Z,75.80
2023-05-10T23:42:38.967Z,75.71
2023-05-10T23:45:24.387Z,75.48
2023-05-10T23:48:09.813Z,75.23
2023-05-10T23:50:55.304Z,75.32
2023-05-10T23:53:40.604Z,75.79
2023-05-10T23:56:26.801Z,75.66
2023-05-10T23:59:12.242Z,75.85
